sensor_id;sensor_type;location;lat;lon;timestamp;P1;durP1;ratioP1;P2;durP2;ratioP2
9465;SDS011;4771;48.726;9.006;2022-12-10T00:01:20;31.27;;;20.53;;
9465;SDS011;4771;48.726;9.006;2022-12-10T00:03:47;34.90;;;23.20;;
9465;SDS011;4771;48.726;9.006;2022-12-10T00:06:15;29.77;;;20.60;;
9465;SDS011;4771;48.726;9.006;2022-12-10T00:08:44;35.60;;;22.10;;
9465;SDS011;4771;48.726;9.006;2022-12-10T00:11:12;32.03;;;21.53;;
9465;SDS011;4771;48.726;9.006;2022-12-10T00:13:42;30.57;;;20.70;;
9465;SDS011;4771;48.726;9.006;2022-12-10T00:16:10;31.30;;;20.77;;
9465;SDS011;4771;48.726;9.006;2022-12-10T00:18:38;32.20;;;21.30;;
9465;SDS011;4771;48.726;9.006;2022-12-10T00:21:06;32.23;;;21.13;;
9465;SDS011;4771;48.726;9.006;2022-12-10T00:23:35;37.37;;;24.27;;
9465;SDS011;4771;48.726;9.006;2022-12-10T00:26:02;34.67;;;24.07;;
9465;SDS011;4771;48.726;9.006;2022-12-10T00:28:30;35.27;;;24.27;;
9465;SDS011;4771;48.726;9.006;2022-12-10T00:31:02;34.83;;;21.47;;
9465;SDS011;4771;48.726;9.006;2022-12-10T00:33:30;38.20;;;25.13;;
9465;SDS011;4771;48.726;9.006;2022-12-10T00:36:00;34.30;;;22.50;;
9465;SDS011;4771;48.726;9.006;2022-12-10T00:38:28;38.33;;;26.40;;
9465;SDS011;4771;48.726;9.006;2022-12-10T00:40:55;43.33;;;28.43;;
9465;SDS011;4771;48.726;9.006;2022-12-10T00:43:22;31.43;;;22.10;;
9465;SDS011;4771;48.726;9.006;2022-12-10T00:45:48;30.00;;;21.43;;
9465;SDS011;4771;48.726;9.006;2022-12-10T00:48:17;29.40;;;20.77;;
9465;SDS011;4771;48.726;9.006;2022-12-10T00:50:44;33.40;;;21.57;;
9465;SDS011;4771;48.726;9.006;2022-12-10T00:53:19;27.43;;;19.53;;
9465;SDS011;4771;48.726;9.006;2022-12-10T00:55:46;30.00;;;19.57;;
9465;SDS011;4771;48.726;9.006;2022-12-10T00:58:13;29.93;;;19.23;;
9465;SDS011;4771;48.726;9.006;2022-12-10T01:00:40;29.57;;;19.83;;
9465;SDS011;4771;48.726;9.006;2022-12-10T01:03:07;30.93;;;19.50;;
9465;SDS011;4771;48.726;9.006;2022-12-10T01:05:35;32.17;;;21.33;;
9465;SDS011;4771;48.726;9.006;2022-12-10T01:08:02;30.13;;;20.37;;
9465;SDS011;4771;48.726;9.006;2022-12-10T01:10:29;29.60;;;20.03;;
9465;SDS011;4771;48.726;9.006;2022-12-10T01:12:56;41.13;;;28.80;;
9465;SDS011;4771;48.726;9.006;2022-12-10T01:15:22;34.83;;;23.70;;
9465;SDS011;4771;48.726;9.006;2022-12-10T01:17:49;29.03;;;20.43;;
9465;SDS011;4771;48.726;9.006;2022-12-10T01:20:16;32.57;;;23.40;;
9465;SDS011;4771;48.726;9.006;2022-12-10T01:22:44;37.93;;;26.93;;
9465;SDS011;4771;48.726;9.006;2022-12-10T01:25:11;32.50;;;21.67;;
9465;SDS011;4771;48.726;9.006;2022-12-10T01:27:38;30.13;;;20.90;;
9465;SDS011;4771;48.726;9.006;2022-12-10T01:30:06;27.07;;;19.60;;
9465;SDS011;4771;48.726;9.006;2022-12-10T01:32:33;28.07;;;20.07;;
9465;SDS011;4771;48.726;9.006;2022-12-10T01:35:00;30.57;;;20.47;;
9465;SDS011;4771;48.726;9.006;2022-12-10T01:37:27;31.27;;;21.17;;
9465;SDS011;4771;48.726;9.006;2022-12-10T01:39:55;31.30;;;19.70;;
9465;SDS011;4771;48.726;9.006;2022-12-10T01:42:22;32.67;;;21.77;;
9465;SDS011;4771;48.726;9.006;2022-12-10T01:45:06;30.07;;;21.03;;
9465;SDS011;4771;48.726;9.006;2022-12-10T01:47:36;30.77;;;19.90;;
9465;SDS011;4771;48.726;9.006;2022-12-10T01:50:04;32.73;;;21.07;;
9465;SDS011;4771;48.726;9.006;2022-12-10T01:52:33;31.97;;;21.90;;
9465;SDS011;4771;48.726;9.006;2022-12-10T01:55:05;31.03;;;21.10;;
9465;SDS011;4771;48.726;9.006;2022-12-10T01:57:34;32.83;;;21.70;;
9465;SDS011;4771;48.726;9.006;2022-12-10T02:00:03;30.67;;;19.80;;
9465;SDS011;4771;48.726;9.006;2022-12-10T02:02:37;31.73;;;20.77;;
9465;SDS011;4771;48.726;9.006;2022-12-10T02:05:12;30.50;;;20.10;;
9465;SDS011;4771;48.726;9.006;2022-12-10T02:07:51;31.37;;;21.83;;
9465;SDS011;4771;48.726;9.006;2022-12-10T02:10:30;29.60;;;20.37;;
9465;SDS011;4771;48.726;9.006;2022-12-10T02:13:06;37.73;;;21.20;;
9465;SDS011;4771;48.726;9.006;2022-12-10T02:15:39;31.83;;;20.33;;
9465;SDS011;4771;48.726;9.006;2022-12-10T02:18:09;29.67;;;20.30;;
9465;SDS011;4771;48.726;9.006;2022-12-10T02:20:40;29.23;;;19.90;;
9465;SDS011;4771;48.726;9.006;2022-12-10T02:23:12;30.33;;;19.67;;
9465;SDS011;4771;48.726;9.006;2022-12-10T02:25:45;31.07;;;20.00;;
9465;SDS011;4771;48.726;9.006;2022-12-10T02:28:17;28.93;;;18.87;;
9465;SDS011;4771;48.726;9.006;2022-12-10T02:30:52;29.90;;;20.87;;
9465;SDS011;4771;48.726;9.006;2022-12-10T02:33:21;28.63;;;19.90;;
9465;SDS011;4771;48.726;9.006;2022-12-10T02:35:50;30.30;;;20.13;;
9465;SDS011;4771;48.726;9.006;2022-12-10T02:38:20;31.87;;;20.43;;
9465;SDS011;4771;48.726;9.006;2022-12-10T02:40:52;28.47;;;19.83;;
9465;SDS011;4771;48.726;9.006;2022-12-10T02:43:23;28.60;;;19.33;;
9465;SDS011;4771;48.726;9.006;2022-12-10T02:45:54;30.83;;;20.87;;
9465;SDS011;4771;48.726;9.006;2022-12-10T02:48:22;28.80;;;19.13;;
9465;SDS011;4771;48.726;9.006;2022-12-10T02:50:50;28.67;;;20.30;;
9465;SDS011;4771;48.726;9.006;2022-12-10T02:53:17;32.77;;;20.03;;
9465;SDS011;4771;48.726;9.006;2022-12-10T02:55:47;28.53;;;20.23;;
9465;SDS011;4771;48.726;9.006;2022-12-10T02:58:26;29.83;;;19.33;;
9465;SDS011;4771;48.726;9.006;2022-12-10T03:01:01;31.83;;;20.03;;
9465;SDS011;4771;48.726;9.006;2022-12-10T03:03:37;28.53;;;19.37;;
9465;SDS011;4771;48.726;9.006;2022-12-10T03:06:12;28.97;;;19.17;;
9465;SDS011;4771;48.726;9.006;2022-12-10T03:08:46;29.90;;;19.10;;
9465;SDS011;4771;48.726;9.006;2022-12-10T03:11:17;29.63;;;20.27;;
9465;SDS011;4771;48.726;9.006;2022-12-10T03:13:47;31.03;;;19.63;;
9465;SDS011;4771;48.726;9.006;2022-12-10T03:16:22;27.50;;;18.33;;
9465;SDS011;4771;48.726;9.006;2022-12-10T03:18:52;27.97;;;18.47;;
9465;SDS011;4771;48.726;9.006;2022-12-10T03:21:23;30.00;;;19.23;;
9465;SDS011;4771;48.726;9.006;2022-12-10T03:23:52;30.63;;;20.33;;
9465;SDS011;4771;48.726;9.006;2022-12-10T03:26:19;30.93;;;19.60;;
9465;SDS011;4771;48.726;9.006;2022-12-10T03:28:49;30.93;;;19.33;;
9465;SDS011;4771;48.726;9.006;2022-12-10T03:31:18;30.67;;;19.73;;
9465;SDS011;4771;48.726;9.006;2022-12-10T03:33:47;29.77;;;19.30;;
9465;SDS011;4771;48.726;9.006;2022-12-10T03:36:15;27.33;;;18.53;;
9465;SDS011;4771;48.726;9.006;2022-12-10T03:38:45;27.13;;;18.77;;
9465;SDS011;4771;48.726;9.006;2022-12-10T03:41:11;29.87;;;19.57;;
9465;SDS011;4771;48.726;9.006;2022-12-10T03:43:51;31.63;;;20.13;;
9465;SDS011;4771;48.726;9.006;2022-12-10T03:46:19;32.67;;;19.53;;
9465;SDS011;4771;48.726;9.006;2022-12-10T03:48:48;28.77;;;19.10;;
9465;SDS011;4771;48.726;9.006;2022-12-10T03:51:15;27.70;;;18.93;;
9465;SDS011;4771;48.726;9.006;2022-12-10T03:53:42;29.67;;;18.97;;
9465;SDS011;4771;48.726;9.006;2022-12-10T03:56:09;28.07;;;18.90;;
9465;SDS011;4771;48.726;9.006;2022-12-10T03:58:36;30.13;;;18.57;;
9465;SDS011;4771;48.726;9.006;2022-12-10T04:01:03;28.73;;;19.53;;
9465;SDS011;4771;48.726;9.006;2022-12-10T04:03:30;28.17;;;19.67;;
9465;SDS011;4771;48.726;9.006;2022-12-10T04:06:02;27.53;;;18.50;;
9465;SDS011;4771;48.726;9.006;2022-12-10T04:08:30;29.80;;;19.17;;
9465;SDS011;4771;48.726;9.006;2022-12-10T04:11:01;28.27;;;19.47;;
9465;SDS011;4771;48.726;9.006;2022-12-10T04:13:30;30.97;;;18.60;;
9465;SDS011;4771;48.726;9.006;2022-12-10T04:16:15;26.50;;;18.63;;
9465;SDS011;4771;48.726;9.006;2022-12-10T04:18:54;30.80;;;18.50;;
9465;SDS011;4771;48.726;9.006;2022-12-10T04:21:23;25.37;;;17.23;;
9465;SDS011;4771;48.726;9.006;2022-12-10T04:24:08;26.23;;;18.23;;
9465;SDS011;4771;48.726;9.006;2022-12-10T04:26:53;28.07;;;19.17;;
9465;SDS011;4771;48.726;9.006;2022-12-10T04:29:21;27.20;;;17.87;;
9465;SDS011;4771;48.726;9.006;2022-12-10T04:31:49;25.57;;;18.03;;
9465;SDS011;4771;48.726;9.006;2022-12-10T04:34:16;27.37;;;18.60;;
9465;SDS011;4771;48.726;9.006;2022-12-10T04:36:45;26.87;;;18.27;;
9465;SDS011;4771;48.726;9.006;2022-12-10T04:39:12;26.90;;;18.20;;
9465;SDS011;4771;48.726;9.006;2022-12-10T04:41:39;26.40;;;17.63;;
9465;SDS011;4771;48.726;9.006;2022-12-10T04:44:06;31.07;;;18.90;;
9465;SDS011;4771;48.726;9.006;2022-12-10T04:46:34;25.83;;;18.50;;
9465;SDS011;4771;48.726;9.006;2022-12-10T04:49:01;28.63;;;18.60;;
9465;SDS011;4771;48.726;9.006;2022-12-10T04:51:28;26.90;;;18.63;;
9465;SDS011;4771;48.726;9.006;2022-12-10T04:53:57;60.23;;;36.63;;
9465;SDS011;4771;48.726;9.006;2022-12-10T04:56:24;54.70;;;35.90;;
9465;SDS011;4771;48.726;9.006;2022-12-10T04:58:51;62.70;;;40.47;;
9465;SDS011;4771;48.726;9.006;2022-12-10T05:01:18;33.87;;;23.03;;
9465;SDS011;4771;48.726;9.006;2022-12-10T05:03:45;32.30;;;22.23;;
9465;SDS011;4771;48.726;9.006;2022-12-10T05:06:13;31.00;;;21.83;;
9465;SDS011;4771;48.726;9.006;2022-12-10T05:08:42;33.00;;;20.13;;
9465;SDS011;4771;48.726;9.006;2022-12-10T05:11:11;36.97;;;25.00;;
9465;SDS011;4771;48.726;9.006;2022-12-10T05:13:40;30.40;;;21.80;;
9465;SDS011;4771;48.726;9.006;2022-12-10T05:16:08;29.73;;;20.50;;
9465;SDS011;4771;48.726;9.006;2022-12-10T05:18:36;29.97;;;19.57;;
9465;SDS011;4771;48.726;9.006;2022-12-10T05:21:04;29.70;;;19.43;;
9465;SDS011;4771;48.726;9.006;2022-12-10T05:23:33;30.67;;;19.80;;
9465;SDS011;4771;48.726;9.006;2022-12-10T05:26:01;29.07;;;19.40;;
9465;SDS011;4771;48.726;9.006;2022-12-10T05:28:31;29.53;;;19.30;;
9465;SDS011;4771;48.726;9.006;2022-12-10T05:30:59;29.67;;;19.33;;
9465;SDS011;4771;48.726;9.006;2022-12-10T05:33:26;28.67;;;19.33;;
9465;SDS011;4771;48.726;9.006;2022-12-10T05:35:54;28.90;;;19.07;;
9465;SDS011;4771;48.726;9.006;2022-12-10T05:38:22;27.57;;;18.13;;
9465;SDS011;4771;48.726;9.006;2022-12-10T05:40:49;27.90;;;18.57;;
9465;SDS011;4771;48.726;9.006;2022-12-10T05:43:19;27.63;;;18.63;;
9465;SDS011;4771;48.726;9.006;2022-12-10T05:45:48;29.50;;;19.20;;
9465;SDS011;4771;48.726;9.006;2022-12-10T05:48:15;27.73;;;19.10;;
9465;SDS011;4771;48.726;9.006;2022-12-10T05:50:42;27.73;;;18.50;;
9465;SDS011;4771;48.726;9.006;2022-12-10T05:53:09;29.00;;;18.90;;
9465;SDS011;4771;48.726;9.006;2022-12-10T05:55:38;28.77;;;18.57;;
9465;SDS011;4771;48.726;9.006;2022-12-10T05:58:05;29.07;;;19.40;;
9465;SDS011;4771;48.726;9.006;2022-12-10T06:00:32;26.60;;;18.97;;
9465;SDS011;4771;48.726;9.006;2022-12-10T06:03:01;27.27;;;19.27;;
9465;SDS011;4771;48.726;9.006;2022-12-10T06:05:27;30.37;;;19.53;;
9465;SDS011;4771;48.726;9.006;2022-12-10T06:07:54;29.37;;;19.93;;
9465;SDS011;4771;48.726;9.006;2022-12-10T06:10:21;30.43;;;20.47;;
9465;SDS011;4771;48.726;9.006;2022-12-10T06:12:48;28.53;;;19.00;;
9465;SDS011;4771;48.726;9.006;2022-12-10T06:15:15;28.30;;;19.13;;
9465;SDS011;4771;48.726;9.006;2022-12-10T06:17:42;29.13;;;19.90;;
9465;SDS011;4771;48.726;9.006;2022-12-10T06:20:10;27.23;;;18.87;;
9465;SDS011;4771;48.726;9.006;2022-12-10T06:22:37;28.57;;;20.00;;
9465;SDS011;4771;48.726;9.006;2022-12-10T06:25:04;28.13;;;19.47;;
9465;SDS011;4771;48.726;9.006;2022-12-10T06:27:32;27.63;;;18.87;;
9465;SDS011;4771;48.726;9.006;2022-12-10T06:29:59;28.47;;;19.00;;
9465;SDS011;4771;48.726;9.006;2022-12-10T06:32:26;29.27;;;20.27;;
9465;SDS011;4771;48.726;9.006;2022-12-10T06:34:53;27.27;;;18.57;;
9465;SDS011;4771;48.726;9.006;2022-12-10T06:37:21;29.07;;;19.70;;
9465;SDS011;4771;48.726;9.006;2022-12-10T06:39:49;28.07;;;19.03;;
9465;SDS011;4771;48.726;9.006;2022-12-10T06:42:17;28.77;;;20.10;;
9465;SDS011;4771;48.726;9.006;2022-12-10T06:44:44;27.70;;;19.53;;
9465;SDS011;4771;48.726;9.006;2022-12-10T06:47:13;30.87;;;19.70;;
9465;SDS011;4771;48.726;9.006;2022-12-10T06:49:40;27.33;;;19.37;;
9465;SDS011;4771;48.726;9.006;2022-12-10T06:52:07;29.90;;;19.43;;
9465;SDS011;4771;48.726;9.006;2022-12-10T06:54:35;31.43;;;21.37;;
9465;SDS011;4771;48.726;9.006;2022-12-10T06:57:02;28.90;;;19.00;;
9465;SDS011;4771;48.726;9.006;2022-12-10T06:59:29;30.33;;;20.40;;
9465;SDS011;4771;48.726;9.006;2022-12-10T07:01:56;30.03;;;20.13;;
9465;SDS011;4771;48.726;9.006;2022-12-10T07:04:23;30.40;;;20.13;;
9465;SDS011;4771;48.726;9.006;2022-12-10T07:06:50;29.10;;;19.50;;
9465;SDS011;4771;48.726;9.006;2022-12-10T07:09:17;29.30;;;19.33;;
9465;SDS011;4771;48.726;9.006;2022-12-10T07:11:45;30.10;;;20.07;;
9465;SDS011;4771;48.726;9.006;2022-12-10T07:14:13;32.60;;;20.77;;
9465;SDS011;4771;48.726;9.006;2022-12-10T07:16:41;29.83;;;20.20;;
9465;SDS011;4771;48.726;9.006;2022-12-10T07:19:08;31.37;;;20.43;;
9465;SDS011;4771;48.726;9.006;2022-12-10T07:21:37;32.43;;;20.10;;
9465;SDS011;4771;48.726;9.006;2022-12-10T07:24:07;28.57;;;20.57;;
9465;SDS011;4771;48.726;9.006;2022-12-10T07:26:38;28.63;;;19.57;;
9465;SDS011;4771;48.726;9.006;2022-12-10T07:29:09;30.20;;;20.60;;
9465;SDS011;4771;48.726;9.006;2022-12-10T07:31:39;30.77;;;19.53;;
9465;SDS011;4771;48.726;9.006;2022-12-10T07:34:06;29.57;;;20.37;;
9465;SDS011;4771;48.726;9.006;2022-12-10T07:36:33;30.93;;;19.90;;
9465;SDS011;4771;48.726;9.006;2022-12-10T07:39:00;29.23;;;19.80;;
9465;SDS011;4771;48.726;9.006;2022-12-10T07:41:27;30.10;;;20.17;;
9465;SDS011;4771;48.726;9.006;2022-12-10T07:43:55;30.47;;;20.33;;
9465;SDS011;4771;48.726;9.006;2022-12-10T07:46:24;30.07;;;19.93;;
9465;SDS011;4771;48.726;9.006;2022-12-10T07:48:53;33.83;;;21.73;;
9465;SDS011;4771;48.726;9.006;2022-12-10T07:51:20;30.00;;;20.07;;
9465;SDS011;4771;48.726;9.006;2022-12-10T07:53:50;31.10;;;20.87;;
9465;SDS011;4771;48.726;9.006;2022-12-10T07:56:17;32.70;;;20.10;;
9465;SDS011;4771;48.726;9.006;2022-12-10T07:58:44;27.77;;;19.70;;
9465;SDS011;4771;48.726;9.006;2022-12-10T08:01:13;28.97;;;19.73;;
9465;SDS011;4771;48.726;9.006;2022-12-10T08:03:43;27.37;;;20.03;;
9465;SDS011;4771;48.726;9.006;2022-12-10T08:06:10;28.63;;;19.83;;
9465;SDS011;4771;48.726;9.006;2022-12-10T08:08:39;32.60;;;21.00;;
9465;SDS011;4771;48.726;9.006;2022-12-10T08:11:06;26.97;;;19.43;;
9465;SDS011;4771;48.726;9.006;2022-12-10T08:13:34;27.63;;;19.77;;
9465;SDS011;4771;48.726;9.006;2022-12-10T08:16:02;30.07;;;19.80;;
9465;SDS011;4771;48.726;9.006;2022-12-10T08:18:30;27.73;;;18.97;;
9465;SDS011;4771;48.726;9.006;2022-12-10T08:20:58;29.87;;;20.30;;
9465;SDS011;4771;48.726;9.006;2022-12-10T08:23:30;30.37;;;20.03;;
9465;SDS011;4771;48.726;9.006;2022-12-10T08:25:57;30.43;;;20.10;;
9465;SDS011;4771;48.726;9.006;2022-12-10T08:28:24;29.00;;;19.70;;
9465;SDS011;4771;48.726;9.006;2022-12-10T08:30:50;27.67;;;19.20;;
9465;SDS011;4771;48.726;9.006;2022-12-10T08:33:17;28.63;;;19.93;;
9465;SDS011;4771;48.726;9.006;2022-12-10T08:35:44;28.60;;;19.80;;
9465;SDS011;4771;48.726;9.006;2022-12-10T08:38:12;28.20;;;19.27;;
9465;SDS011;4771;48.726;9.006;2022-12-10T08:40:39;27.93;;;20.23;;
9465;SDS011;4771;48.726;9.006;2022-12-10T08:43:06;28.23;;;19.93;;
9465;SDS011;4771;48.726;9.006;2022-12-10T08:45:33;27.67;;;20.10;;
9465;SDS011;4771;48.726;9.006;2022-12-10T08:48:00;26.33;;;18.87;;
9465;SDS011;4771;48.726;9.006;2022-12-10T08:50:28;29.17;;;19.93;;
9465;SDS011;4771;48.726;9.006;2022-12-10T08:52:55;26.93;;;19.57;;
9465;SDS011;4771;48.726;9.006;2022-12-10T08:55:23;26.87;;;19.53;;
9465;SDS011;4771;48.726;9.006;2022-12-10T08:57:50;28.33;;;19.03;;
9465;SDS011;4771;48.726;9.006;2022-12-10T09:00:17;28.73;;;19.43;;
9465;SDS011;4771;48.726;9.006;2022-12-10T09:02:44;28.53;;;19.10;;
9465;SDS011;4771;48.726;9.006;2022-12-10T09:05:11;27.27;;;18.63;;
9465;SDS011;4771;48.726;9.006;2022-12-10T09:07:38;27.97;;;19.30;;
9465;SDS011;4771;48.726;9.006;2022-12-10T09:10:05;30.40;;;19.57;;
9465;SDS011;4771;48.726;9.006;2022-12-10T09:12:34;29.50;;;20.20;;
9465;SDS011;4771;48.726;9.006;2022-12-10T09:15:01;27.77;;;20.50;;
9465;SDS011;4771;48.726;9.006;2022-12-10T09:17:29;27.10;;;19.43;;
9465;SDS011;4771;48.726;9.006;2022-12-10T09:19:55;26.37;;;19.10;;
9465;SDS011;4771;48.726;9.006;2022-12-10T09:22:22;25.70;;;18.20;;
9465;SDS011;4771;48.726;9.006;2022-12-10T09:24:49;27.40;;;18.93;;
9465;SDS011;4771;48.726;9.006;2022-12-10T09:27:16;27.03;;;19.07;;
9465;SDS011;4771;48.726;9.006;2022-12-10T09:29:44;27.20;;;20.13;;
9465;SDS011;4771;48.726;9.006;2022-12-10T09:32:11;27.83;;;19.63;;
9465;SDS011;4771;48.726;9.006;2022-12-10T09:34:38;28.03;;;19.40;;
9465;SDS011;4771;48.726;9.006;2022-12-10T09:37:05;27.33;;;18.23;;
9465;SDS011;4771;48.726;9.006;2022-12-10T09:39:31;26.93;;;19.07;;
9465;SDS011;4771;48.726;9.006;2022-12-10T09:42:06;25.97;;;18.23;;
9465;SDS011;4771;48.726;9.006;2022-12-10T09:44:46;26.30;;;18.23;;
9465;SDS011;4771;48.726;9.006;2022-12-10T09:47:19;26.07;;;17.87;;
9465;SDS011;4771;48.726;9.006;2022-12-10T09:49:55;25.50;;;18.07;;
9465;SDS011;4771;48.726;9.006;2022-12-10T09:52:32;25.30;;;17.93;;
9465;SDS011;4771;48.726;9.006;2022-12-10T09:55:04;26.70;;;18.40;;
9465;SDS011;4771;48.726;9.006;2022-12-10T09:57:37;27.17;;;18.40;;
9465;SDS011;4771;48.726;9.006;2022-12-10T10:00:15;25.73;;;17.47;;
9465;SDS011;4771;48.726;9.006;2022-12-10T10:02:46;25.73;;;18.57;;
9465;SDS011;4771;48.726;9.006;2022-12-10T10:05:16;27.20;;;18.23;;
9465;SDS011;4771;48.726;9.006;2022-12-10T10:07:48;25.10;;;17.97;;
9465;SDS011;4771;48.726;9.006;2022-12-10T10:10:23;27.03;;;18.67;;
9465;SDS011;4771;48.726;9.006;2022-12-10T10:12:52;26.87;;;18.83;;
9465;SDS011;4771;48.726;9.006;2022-12-10T10:15:24;25.63;;;18.77;;
9465;SDS011;4771;48.726;9.006;2022-12-10T10:17:54;25.70;;;17.93;;
9465;SDS011;4771;48.726;9.006;2022-12-10T10:20:24;23.53;;;18.03;;
9465;SDS011;4771;48.726;9.006;2022-12-10T10:22:51;25.70;;;17.00;;
9465;SDS011;4771;48.726;9.006;2022-12-10T10:25:19;25.20;;;18.27;;
9465;SDS011;4771;48.726;9.006;2022-12-10T10:27:46;30.20;;;18.13;;
9465;SDS011;4771;48.726;9.006;2022-12-10T10:30:14;23.97;;;17.50;;
9465;SDS011;4771;48.726;9.006;2022-12-10T10:32:46;23.40;;;17.57;;
9465;SDS011;4771;48.726;9.006;2022-12-10T10:35:23;23.27;;;16.67;;
9465;SDS011;4771;48.726;9.006;2022-12-10T10:37:56;24.07;;;17.17;;
9465;SDS011;4771;48.726;9.006;2022-12-10T10:40:26;24.17;;;17.67;;
9465;SDS011;4771;48.726;9.006;2022-12-10T10:42:56;25.53;;;18.80;;
9465;SDS011;4771;48.726;9.006;2022-12-10T10:45:32;26.43;;;17.50;;
9465;SDS011;4771;48.726;9.006;2022-12-10T10:48:08;25.57;;;17.20;;
9465;SDS011;4771;48.726;9.006;2022-12-10T10:50:39;21.90;;;16.40;;
9465;SDS011;4771;48.726;9.006;2022-12-10T10:53:21;21.03;;;15.90;;
9465;SDS011;4771;48.726;9.006;2022-12-10T10:55:53;23.63;;;16.43;;
9465;SDS011;4771;48.726;9.006;2022-12-10T10:58:23;24.67;;;16.57;;
9465;SDS011;4771;48.726;9.006;2022-12-10T11:00:55;24.10;;;15.83;;
9465;SDS011;4771;48.726;9.006;2022-12-10T11:03:26;23.63;;;17.07;;
9465;SDS011;4771;48.726;9.006;2022-12-10T11:05:56;24.27;;;17.70;;
9465;SDS011;4771;48.726;9.006;2022-12-10T11:08:24;23.77;;;17.50;;
9465;SDS011;4771;48.726;9.006;2022-12-10T11:10:56;21.87;;;15.83;;
9465;SDS011;4771;48.726;9.006;2022-12-10T11:13:28;21.03;;;15.40;;
9465;SDS011;4771;48.726;9.006;2022-12-10T11:15:57;19.13;;;14.33;;
9465;SDS011;4771;48.726;9.006;2022-12-10T11:18:31;23.17;;;15.63;;
9465;SDS011;4771;48.726;9.006;2022-12-10T11:21:00;20.97;;;14.80;;
9465;SDS011;4771;48.726;9.006;2022-12-10T11:23:30;19.60;;;15.17;;
9465;SDS011;4771;48.726;9.006;2022-12-10T11:26:02;19.47;;;14.53;;
9465;SDS011;4771;48.726;9.006;2022-12-10T11:28:40;20.80;;;15.13;;
9465;SDS011;4771;48.726;9.006;2022-12-10T11:31:21;19.60;;;14.37;;
9465;SDS011;4771;48.726;9.006;2022-12-10T11:33:58;20.87;;;15.07;;
9465;SDS011;4771;48.726;9.006;2022-12-10T11:36:34;19.47;;;14.67;;
9465;SDS011;4771;48.726;9.006;2022-12-10T11:39:07;20.93;;;15.00;;
9465;SDS011;4771;48.726;9.006;2022-12-10T11:41:48;20.57;;;15.87;;
9465;SDS011;4771;48.726;9.006;2022-12-10T11:44:22;23.03;;;15.77;;
9465;SDS011;4771;48.726;9.006;2022-12-10T11:47:00;21.77;;;15.77;;
9465;SDS011;4771;48.726;9.006;2022-12-10T11:49:47;22.50;;;15.00;;
9465;SDS011;4771;48.726;9.006;2022-12-10T11:52:27;20.30;;;14.33;;
9465;SDS011;4771;48.726;9.006;2022-12-10T11:55:07;24.37;;;16.20;;
9465;SDS011;4771;48.726;9.006;2022-12-10T11:57:43;21.87;;;15.10;;
9465;SDS011;4771;48.726;9.006;2022-12-10T12:00:17;20.70;;;14.93;;
9465;SDS011;4771;48.726;9.006;2022-12-10T12:05:50;22.70;;;15.70;;
9465;SDS011;4771;48.726;9.006;2022-12-10T12:08:28;23.03;;;16.03;;
9465;SDS011;4771;48.726;9.006;2022-12-10T12:11:05;20.43;;;14.77;;
9465;SDS011;4771;48.726;9.006;2022-12-10T12:13:43;19.67;;;14.73;;
9465;SDS011;4771;48.726;9.006;2022-12-10T12:16:20;19.40;;;14.83;;
9465;SDS011;4771;48.726;9.006;2022-12-10T12:18:54;19.67;;;14.10;;
9465;SDS011;4771;48.726;9.006;2022-12-10T12:21:26;19.03;;;13.73;;
9465;SDS011;4771;48.726;9.006;2022-12-10T12:23:54;20.70;;;13.83;;
9465;SDS011;4771;48.726;9.006;2022-12-10T12:26:26;17.77;;;13.93;;
9465;SDS011;4771;48.726;9.006;2022-12-10T12:28:56;19.33;;;14.10;;
9465;SDS011;4771;48.726;9.006;2022-12-10T12:31:34;17.77;;;13.97;;
9465;SDS011;4771;48.726;9.006;2022-12-10T12:34:04;17.70;;;13.00;;
9465;SDS011;4771;48.726;9.006;2022-12-10T12:36:41;17.70;;;13.17;;
9465;SDS011;4771;48.726;9.006;2022-12-10T12:39:11;19.73;;;13.70;;
9465;SDS011;4771;48.726;9.006;2022-12-10T12:41:47;17.90;;;13.70;;
9465;SDS011;4771;48.726;9.006;2022-12-10T12:44:21;16.83;;;13.37;;
9465;SDS011;4771;48.726;9.006;2022-12-10T12:46:55;18.73;;;14.03;;
9465;SDS011;4771;48.726;9.006;2022-12-10T12:49:26;17.27;;;12.80;;
9465;SDS011;4771;48.726;9.006;2022-12-10T12:51:58;17.97;;;12.67;;
9465;SDS011;4771;48.726;9.006;2022-12-10T12:54:28;18.57;;;13.13;;
9465;SDS011;4771;48.726;9.006;2022-12-10T12:57:00;19.13;;;13.70;;
9465;SDS011;4771;48.726;9.006;2022-12-10T12:59:35;18.33;;;13.13;;
9465;SDS011;4771;48.726;9.006;2022-12-10T13:02:17;17.43;;;13.07;;
9465;SDS011;4771;48.726;9.006;2022-12-10T13:04:50;15.97;;;12.70;;
9465;SDS011;4771;48.726;9.006;2022-12-10T13:07:30;18.73;;;13.40;;
9465;SDS011;4771;48.726;9.006;2022-12-10T13:12:52;21.17;;;13.80;;
9465;SDS011;4771;48.726;9.006;2022-12-10T13:15:42;18.93;;;13.80;;
9465;SDS011;4771;48.726;9.006;2022-12-10T13:18:23;20.03;;;14.57;;
9465;SDS011;4771;48.726;9.006;2022-12-10T13:21:19;18.93;;;13.60;;
9465;SDS011;4771;48.726;9.006;2022-12-10T13:24:04;17.53;;;13.43;;
9465;SDS011;4771;48.726;9.006;2022-12-10T13:26:33;17.70;;;12.80;;
9465;SDS011;4771;48.726;9.006;2022-12-10T13:29:11;17.30;;;13.37;;
9465;SDS011;4771;48.726;9.006;2022-12-10T13:31:54;18.00;;;13.17;;
9465;SDS011;4771;48.726;9.006;2022-12-10T13:34:29;19.67;;;13.50;;
9465;SDS011;4771;48.726;9.006;2022-12-10T13:40:09;18.83;;;13.40;;
9465;SDS011;4771;48.726;9.006;2022-12-10T13:42:42;19.20;;;13.73;;
9465;SDS011;4771;48.726;9.006;2022-12-10T13:45:33;20.30;;;13.90;;
9465;SDS011;4771;48.726;9.006;2022-12-10T13:48:22;22.60;;;14.20;;
9465;SDS011;4771;48.726;9.006;2022-12-10T13:50:54;20.60;;;14.43;;
9465;SDS011;4771;48.726;9.006;2022-12-10T13:53:41;17.93;;;12.53;;
9465;SDS011;4771;48.726;9.006;2022-12-10T13:56:17;18.93;;;13.70;;
9465;SDS011;4771;48.726;9.006;2022-12-10T13:58:54;18.43;;;13.83;;
9465;SDS011;4771;48.726;9.006;2022-12-10T14:01:40;16.93;;;12.93;;
9465;SDS011;4771;48.726;9.006;2022-12-10T14:04:18;17.53;;;12.80;;
9465;SDS011;4771;48.726;9.006;2022-12-10T14:06:54;19.93;;;13.10;;
9465;SDS011;4771;48.726;9.006;2022-12-10T14:09:22;19.00;;;12.97;;
9465;SDS011;4771;48.726;9.006;2022-12-10T14:11:54;17.80;;;12.60;;
9465;SDS011;4771;48.726;9.006;2022-12-10T14:14:25;18.43;;;13.87;;
9465;SDS011;4771;48.726;9.006;2022-12-10T14:16:59;20.00;;;13.77;;
9465;SDS011;4771;48.726;9.006;2022-12-10T14:19:27;19.67;;;13.60;;
9465;SDS011;4771;48.726;9.006;2022-12-10T14:21:55;16.27;;;11.80;;
9465;SDS011;4771;48.726;9.006;2022-12-10T14:24:26;15.63;;;11.10;;
9465;SDS011;4771;48.726;9.006;2022-12-10T14:27:01;19.53;;;12.80;;
9465;SDS011;4771;48.726;9.006;2022-12-10T14:29:35;16.53;;;11.30;;
9465;SDS011;4771;48.726;9.006;2022-12-10T14:32:02;16.00;;;11.70;;
9465;SDS011;4771;48.726;9.006;2022-12-10T14:34:30;15.23;;;11.40;;
9465;SDS011;4771;48.726;9.006;2022-12-10T14:36:57;17.53;;;12.67;;
9465;SDS011;4771;48.726;9.006;2022-12-10T14:39:31;16.40;;;12.17;;
9465;SDS011;4771;48.726;9.006;2022-12-10T14:42:01;18.87;;;12.93;;
9465;SDS011;4771;48.726;9.006;2022-12-10T14:44:30;18.67;;;12.30;;
9465;SDS011;4771;48.726;9.006;2022-12-10T14:47:05;18.77;;;13.00;;
9465;SDS011;4771;48.726;9.006;2022-12-10T14:49:38;17.40;;;13.23;;
9465;SDS011;4771;48.726;9.006;2022-12-10T14:52:09;19.67;;;13.07;;
9465;SDS011;4771;48.726;9.006;2022-12-10T14:54:42;19.77;;;14.07;;
9465;SDS011;4771;48.726;9.006;2022-12-10T14:57:15;18.23;;;13.10;;
9465;SDS011;4771;48.726;9.006;2022-12-10T14:59:47;16.80;;;13.27;;
9465;SDS011;4771;48.726;9.006;2022-12-10T15:02:18;19.63;;;13.73;;
9465;SDS011;4771;48.726;9.006;2022-12-10T15:04:48;17.63;;;13.20;;
9465;SDS011;4771;48.726;9.006;2022-12-10T15:07:17;18.03;;;13.27;;
9465;SDS011;4771;48.726;9.006;2022-12-10T15:09:46;18.90;;;13.37;;
9465;SDS011;4771;48.726;9.006;2022-12-10T15:12:20;20.13;;;14.63;;
9465;SDS011;4771;48.726;9.006;2022-12-10T15:14:58;19.33;;;13.63;;
9465;SDS011;4771;48.726;9.006;2022-12-10T15:17:38;20.33;;;13.83;;